Terminal Aerodrome Forecast
Issued by NWS Spokane, WA

Home | Current Version | Previous Version | Text Only | Print | Product List | Glossary On
Versions: 1 2 3 4 5 6 7 8 9 10 11 12 13 14 15 16 17 18 19 20 21 22 23 24 25 26 27 28 29 30 31 32 33 34 35 36 37 38 39 40 41 42 43 44 45 46 47
000
FTUS46 KOTX 131614 AAB
TAFEAT
TAF AMD
KEAT 131614Z 1316/1412 07003KT 1/4SM FZFG VV001
      TEMPO 1316/1320 1 1/2SM BR SCT001 BKN200
     FM132000 VRB03KT 2SM BR SCT001 BKN025 OVC100
     FM132300 24004KT 1SM -RA BR BKN002 OVC020
     FM140500 24006KT 1/2SM FG BKN004 BKN025=

USA.gov is the U.S. government's official web portal to all federal, state and local government web resources and services.